createdAt,value
2022-08-03T00:02:16.681Z,3.63
2022-08-03T00:04:44.451Z,3.42
2022-08-03T00:07:11.928Z,3.80
2022-08-03T00:09:39.682Z,4.00
2022-08-03T00:12:09.150Z,3.70
2022-08-03T00:14:36.496Z,3.35
2022-08-03T00:17:03.779Z,3.92
2022-08-03T00:19:30.942Z,3.85
2022-08-03T00:21:58.767Z,3.75
2022-08-03T00:24:26.385Z,3.85
2022-08-03T00:26:53.307Z,4.10
2022-08-03T00:29:23.011Z,3.88
2022-08-03T00:31:52.305Z,3.47
2022-08-03T00:34:29.891Z,3.85
2022-08-03T00:37:04.125Z,3.80
2022-08-03T00:39:31.336Z,3.45
2022-08-03T00:42:06.867Z,3.75
2022-08-03T00:47:11.698Z,3.63
2022-08-03T00:49:41.021Z,3.80
2022-08-03T00:52:10.688Z,3.80
2022-08-03T00:54:38.878Z,3.80
2022-08-03T00:57:07.962Z,3.83
2022-08-03T00:59:35.481Z,3.75
2022-08-03T01:02:10.316Z,3.60
2022-08-03T01:04:40.769Z,4.00
2022-08-03T01:07:18.420Z,4.07
2022-08-03T01:09:59.188Z,3.90
2022-08-03T01:12:33.516Z,4.55
2022-08-03T01:15:06.437Z,4.38
2022-08-03T01:17:47.244Z,4.00
2022-08-03T01:20:17.988Z,3.75
2022-08-03T01:23:16.311Z,3.70
2022-08-03T01:26:03.048Z,4.28
2022-08-03T01:28:54.930Z,3.80
2022-08-03T01:31:30.673Z,3.80
2022-08-03T01:34:00.490Z,4.07
2022-08-03T01:36:34.227Z,4.10
2022-08-03T01:39:05.769Z,4.10
2022-08-03T01:41:39.257Z,4.28
2022-08-03T01:44:29.016Z,3.72
2022-08-03T01:47:01.578Z,3.97
2022-08-03T01:49:31.510Z,3.88
2022-08-03T01:52:03.912Z,4.20
2022-08-03T01:54:41.125Z,4.40
2022-08-03T01:57:12.664Z,4.40
2022-08-03T01:59:42.253Z,4.45
2022-08-03T02:02:33.672Z,4.70
2022-08-03T02:05:05.109Z,4.40
2022-08-03T02:07:35.890Z,4.53
2022-08-03T02:10:06.520Z,4.30
2022-08-03T02:12:39.192Z,3.95
2022-08-03T02:15:08.139Z,4.88
2022-08-03T02:17:40.334Z,4.10
2022-08-03T02:20:12.651Z,4.50
2022-08-03T02:22:41.751Z,4.40
2022-08-03T02:25:10.856Z,4.35
2022-08-03T02:27:43.992Z,3.90
2022-08-03T02:30:18.113Z,4.68
2022-08-03T02:32:55.962Z,4.28
2022-08-03T02:35:26.681Z,4.05
2022-08-03T02:37:59.242Z,4.40
2022-08-03T02:43:16.584Z,4.60
2022-08-03T02:45:48.452Z,4.53
2022-08-03T02:48:22.004Z,4.40
2022-08-03T02:50:51.966Z,4.10
2022-08-03T02:53:21.719Z,4.47
2022-08-03T02:55:50.544Z,4.68
2022-08-03T02:58:20.315Z,3.97
2022-08-03T03:00:49.138Z,5.03
2022-08-03T03:03:19.807Z,4.15
2022-08-03T03:05:55.413Z,3.95
2022-08-03T03:08:28.479Z,5.35
2022-08-03T03:10:59.622Z,4.38
2022-08-03T03:13:30.852Z,4.82
2022-08-03T03:16:01.447Z,4.30
2022-08-03T03:18:31.988Z,4.72
2022-08-03T03:21:01.494Z,4.40
2022-08-03T03:23:31.561Z,4.25
2022-08-03T03:25:59.258Z,4.68
2022-08-03T03:28:26.986Z,4.43
2022-08-03T03:30:54.299Z,5.50
2022-08-03T03:33:23.121Z,5.20
2022-08-03T03:36:08.541Z,4.85
2022-08-03T03:38:36.505Z,7.63
2022-08-03T03:41:04.548Z,5.00
2022-08-03T03:43:35.818Z,4.85
2022-08-03T03:46:02.995Z,4.60
2022-08-03T03:48:30.233Z,4.55
2022-08-03T03:51:01.287Z,4.45
2022-08-03T03:53:30.223Z,4.20
2022-08-03T03:56:02.580Z,4.35
2022-08-03T03:58:32.166Z,4.30
2022-08-03T04:01:00.189Z,3.90
2022-08-03T04:03:27.516Z,4.40
2022-08-03T04:05:55.025Z,4.63
2022-08-03T04:08:22.400Z,4.50
2022-08-03T04:11:02.986Z,4.50
2022-08-03T04:13:34.599Z,4.47
2022-08-03T04:16:03.429Z,5.13
2022-08-03T04:18:33.417Z,5.50
2022-08-03T04:21:04.152Z,5.03
2022-08-03T04:23:34.529Z,5.03
2022-08-03T04:26:07.802Z,4.65
2022-08-03T04:28:36.304Z,4.65
2022-08-03T04:31:04.790Z,4.38
2022-08-03T04:33:35.018Z,5.00
2022-08-03T04:36:08.196Z,5.25
2022-08-03T04:38:40.813Z,5.50
2022-08-03T04:41:12.165Z,4.57
2022-08-03T04:43:40.339Z,4.75
2022-08-03T04:46:08.402Z,4.32
2022-08-03T04:48:36.286Z,4.70
2022-08-03T04:51:04.461Z,4.60
2022-08-03T04:53:32.331Z,4.72
2022-08-03T04:56:04.946Z,5.00
2022-08-03T04:58:36.262Z,5.40
2022-08-03T05:01:03.974Z,5.20
2022-08-03T05:03:33.672Z,5.40
2022-08-03T05:06:09.471Z,5.47
2022-08-03T05:08:46.228Z,5.40
2022-08-03T05:11:15.284Z,5.07
2022-08-03T05:13:44.247Z,5.65
2022-08-03T05:16:12.616Z,5.32
2022-08-03T05:18:41.707Z,5.68
2022-08-03T05:21:11.456Z,5.72
2022-08-03T05:23:38.671Z,5.20
2022-08-03T05:26:05.680Z,5.90
2022-08-03T05:28:33.022Z,5.82
2022-08-03T05:31:02.419Z,5.68
2022-08-03T05:33:29.867Z,5.72
2022-08-03T05:36:03.174Z,5.93
2022-08-03T05:38:35.113Z,5.90
2022-08-03T05:41:21.061Z,5.90
2022-08-03T05:43:51.400Z,5.85
2022-08-03T05:46:20.527Z,5.43
2022-08-03T05:48:47.728Z,6.05
2022-08-03T05:51:16.848Z,5.88
2022-08-03T05:53:44.920Z,6.20
2022-08-03T05:56:14.084Z,5.38
2022-08-03T05:58:43.363Z,5.50
2022-08-03T06:01:11.009Z,5.75
2022-08-03T06:03:39.665Z,5.55
2022-08-03T06:06:07.051Z,5.38
2022-08-03T06:08:34.568Z,5.00
2022-08-03T06:11:01.970Z,6.15
2022-08-03T06:13:29.221Z,4.78
2022-08-03T06:15:56.443Z,5.47
2022-08-03T06:18:25.241Z,5.70
2022-08-03T06:20:55.458Z,5.43
2022-08-03T06:23:28.670Z,5.97
2022-08-03T06:26:13.533Z,5.35
2022-08-03T06:28:52.733Z,5.47
2022-08-03T06:31:21.601Z,5.05
2022-08-03T06:34:34.145Z,5.50
2022-08-03T06:36:40.170Z,5.07
2022-08-03T06:39:08.043Z,5.03
2022-08-03T06:41:38.156Z,4.70
2022-08-03T06:44:13.184Z,4.35
2022-08-03T06:46:40.783Z,4.10
2022-08-03T06:49:10.582Z,4.10
2022-08-03T06:52:05.468Z,3.97
2022-08-03T06:54:32.586Z,3.95
2022-08-03T06:57:00.796Z,4.18
2022-08-03T07:00:10.409Z,3.88
2022-08-03T07:02:19.146Z,3.65
2022-08-03T07:04:47.515Z,3.70
2022-08-03T07:07:19.569Z,3.30
2022-08-03T07:09:56.364Z,3.00
2022-08-03T07:12:27.300Z,3.03
2022-08-03T07:15:00.012Z,3.05
2022-08-03T07:17:29.117Z,2.75
2022-08-03T07:19:58.550Z,2.85
2022-08-03T07:22:30.546Z,2.90
2022-08-03T07:25:01.623Z,2.65
2022-08-03T07:27:29.123Z,2.78
2022-08-03T07:29:57.594Z,2.35
2022-08-03T07:32:28.635Z,2.40
2022-08-03T07:35:00.505Z,2.15
2022-08-03T07:37:33.044Z,2.50
2022-08-03T07:40:05.361Z,2.53
2022-08-03T07:42:33.083Z,2.20
2022-08-03T07:45:00.754Z,2.35
2022-08-03T07:47:35.269Z,2.40
2022-08-03T07:50:09.173Z,2.10
2022-08-03T07:52:40.623Z,2.25
2022-08-03T07:55:12.522Z,2.30
2022-08-03T07:57:40.245Z,2.55
2022-08-03T08:00:14.873Z,2.55
2022-08-03T08:02:43.236Z,3.10
2022-08-03T08:05:13.099Z,2.90
2022-08-03T08:07:43.502Z,2.70
2022-08-03T08:10:11.519Z,2.60
2022-08-03T08:12:43.003Z,2.80
2022-08-03T08:15:11.481Z,2.55
2022-08-03T08:17:43.373Z,2.80
2022-08-03T08:20:13.240Z,3.00
2022-08-03T08:22:43.980Z,2.75
2022-08-03T08:25:11.818Z,2.90
2022-08-03T08:28:29.190Z,2.90
2022-08-03T08:30:33.918Z,2.90
2022-08-03T08:33:03.286Z,2.78
2022-08-03T08:35:32.665Z,2.90
2022-08-03T08:38:05.558Z,2.65
2022-08-03T08:40:36.943Z,2.80
2022-08-03T08:43:04.389Z,2.53
2022-08-03T08:45:31.905Z,2.83
2022-08-03T08:48:07.939Z,2.60
2022-08-03T08:50:38.303Z,2.38
2022-08-03T08:53:18.166Z,2.42
2022-08-03T08:55:59.665Z,2.60
2022-08-03T08:58:30.875Z,2.50
2022-08-03T09:00:59.441Z,2.70
2022-08-03T09:03:30.251Z,3.08
2022-08-03T09:06:01.139Z,2.33
2022-08-03T09:08:34.557Z,2.38
2022-08-03T09:11:02.122Z,2.63
2022-08-03T09:13:30.165Z,2.33
2022-08-03T09:16:13.199Z,2.45
2022-08-03T09:18:41.958Z,2.67
2022-08-03T09:21:33.572Z,3.00
2022-08-03T09:24:13.127Z,2.70
2022-08-03T09:26:53.782Z,2.40
2022-08-03T09:29:22.362Z,2.60
2022-08-03T09:31:49.586Z,2.70
2022-08-03T09:34:18.864Z,2.67
2022-08-03T09:36:47.573Z,2.45
2022-08-03T09:39:19.502Z,2.15
2022-08-03T09:42:14.967Z,2.30
2022-08-03T09:44:44.606Z,2.70
2022-08-03T09:47:13.762Z,2.13
2022-08-03T09:49:42.594Z,2.20
2022-08-03T09:52:32.933Z,2.40
2022-08-03T09:56:32.818Z,2.50
2022-08-03T09:58:05.486Z,2.30
2022-08-03T10:00:32.948Z,2.30
2022-08-03T10:03:04.806Z,2.20
2022-08-03T10:05:33.310Z,2.55
2022-08-03T10:08:01.308Z,2.47
2022-08-03T10:10:45.922Z,2.47
2022-08-03T10:13:15.377Z,2.00
2022-08-03T10:16:22.878Z,1.95
2022-08-03T10:18:32.460Z,2.22
2022-08-03T10:21:04.022Z,2.20
2022-08-03T10:23:35.496Z,1.95
2022-08-03T10:26:08.743Z,2.33
2022-08-03T10:28:45.034Z,2.00
2022-08-03T10:31:14.313Z,2.25
2022-08-03T10:34:05.296Z,2.20
2022-08-03T10:36:33.854Z,2.10
2022-08-03T10:39:03.332Z,1.85
2022-08-03T10:41:48.219Z,2.00
2022-08-03T10:44:26.254Z,1.90
2022-08-03T10:46:54.632Z,1.80
2022-08-03T10:49:35.354Z,1.92
2022-08-03T10:52:13.896Z,2.00
2022-08-03T10:54:51.976Z,2.20
2022-08-03T10:57:56.212Z,2.05
2022-08-03T11:00:29.157Z,2.13
2022-08-03T11:03:08.389Z,1.80
2022-08-03T11:05:39.319Z,2.00
2022-08-03T11:11:41.157Z,2.00
2022-08-03T11:14:12.438Z,2.20
2022-08-03T11:16:42.015Z,2.05
2022-08-03T11:19:11.521Z,2.20
2022-08-03T11:22:04.566Z,2.00
2022-08-03T11:24:59.980Z,2.08
2022-08-03T11:27:29.056Z,1.77
2022-08-03T11:29:59.988Z,1.85
2022-08-03T11:32:58.711Z,1.80
2022-08-03T11:35:28.122Z,1.85
2022-08-03T11:38:10.401Z,1.85
2022-08-03T11:40:40.719Z,2.00
2022-08-03T11:43:09.290Z,1.98
2022-08-03T11:45:38.713Z,2.00
2022-08-03T11:48:18.434Z,1.80
2022-08-03T11:50:45.922Z,1.70
2022-08-03T11:53:19.802Z,1.83
2022-08-03T11:55:52.727Z,1.70
2022-08-03T11:59:01.043Z,2.00
2022-08-03T12:01:11.869Z,1.77
2022-08-03T12:03:40.070Z,2.00
2022-08-03T12:06:10.674Z,2.00
2022-08-03T12:08:39.220Z,1.95
2022-08-03T12:11:09.288Z,1.90
2022-08-03T12:14:44.124Z,1.67
2022-08-03T12:16:31.494Z,1.80
2022-08-03T12:19:01.906Z,2.03
2022-08-03T12:21:31.552Z,2.05
2022-08-03T12:24:00.891Z,1.50
2022-08-03T12:26:29.010Z,1.70
2022-08-03T12:28:59.041Z,1.50
2022-08-03T12:31:26.857Z,1.80
2022-08-03T12:34:02.151Z,1.73
2022-08-03T12:36:31.941Z,1.90
2022-08-03T12:39:01.934Z,1.63
2022-08-03T12:41:31.619Z,1.52
2022-08-03T12:43:59.831Z,1.40
2022-08-03T12:46:32.140Z,1.70
2022-08-03T12:49:07.419Z,1.50
2022-08-03T12:51:38.429Z,1.65
2022-08-03T12:54:07.284Z,1.40
2022-08-03T12:56:35.291Z,1.50
2022-08-03T12:59:32.178Z,1.60
2022-08-03T13:02:04.676Z,1.65
2022-08-03T13:07:14.146Z,1.73
2022-08-03T13:09:45.728Z,1.55
2022-08-03T13:12:16.151Z,1.67
2022-08-03T13:14:44.944Z,1.60
2022-08-03T13:17:13.143Z,1.42
2022-08-03T13:19:44.411Z,1.33
2022-08-03T13:22:12.976Z,1.48
2022-08-03T13:24:41.219Z,1.30
2022-08-03T13:28:01.661Z,1.60
2022-08-03T13:30:02.530Z,1.30
2022-08-03T13:32:32.750Z,1.50
2022-08-03T13:35:07.096Z,1.40
2022-08-03T13:37:35.179Z,1.55
2022-08-03T13:40:04.771Z,1.33
2022-08-03T13:42:35.203Z,1.40
2022-08-03T13:45:03.317Z,1.63
2022-08-03T13:47:31.129Z,1.50
2022-08-03T13:50:01.538Z,1.40
2022-08-03T13:52:46.476Z,1.52
2022-08-03T13:55:13.836Z,1.73
2022-08-03T13:58:06.292Z,1.30
2022-08-03T14:00:29.746Z,1.55
2022-08-03T14:03:12.583Z,1.50
2022-08-03T14:05:42.392Z,1.60
2022-08-03T14:08:13.044Z,1.50
2022-08-03T14:10:42.722Z,1.50
2022-08-03T14:13:12.782Z,1.67
2022-08-03T14:15:51.192Z,1.70
2022-08-03T14:18:28.536Z,1.50
2022-08-03T14:21:04.819Z,1.63
2022-08-03T14:26:03.688Z,1.40
2022-08-03T14:28:31.193Z,1.33
2022-08-03T14:30:58.380Z,1.60
2022-08-03T14:33:25.886Z,1.35
2022-08-03T14:35:53.689Z,1.60
2022-08-03T14:38:23.192Z,1.58
2022-08-03T14:40:52.415Z,1.50
2022-08-03T14:43:20.178Z,1.65
2022-08-03T14:45:49.748Z,1.25
2022-08-03T14:50:28.572Z,1.60
2022-08-03T14:51:06.264Z,1.73
2022-08-03T14:53:34.720Z,1.67
2022-08-03T14:56:10.028Z,1.42
2022-08-03T14:58:41.437Z,1.70
2022-08-03T15:02:02.196Z,1.42
2022-08-03T15:03:56.967Z,1.67
2022-08-03T15:06:24.220Z,1.40
2022-08-03T15:09:13.940Z,1.50
2022-08-03T15:11:40.579Z,1.45
2022-08-03T15:14:09.521Z,1.40
2022-08-03T15:16:37.094Z,1.23
2022-08-03T15:20:00.425Z,1.50
2022-08-03T15:21:54.113Z,1.40
2022-08-03T15:24:21.533Z,1.70
2022-08-03T15:26:51.397Z,1.52
2022-08-03T15:30:09.039Z,1.60
2022-08-03T15:32:09.605Z,1.60
2022-08-03T15:34:37.616Z,1.30
2022-08-03T15:37:15.106Z,1.50
2022-08-03T15:39:58.844Z,1.60
2022-08-03T15:45:01.902Z,1.60
2022-08-03T15:47:29.746Z,1.50
2022-08-03T15:49:57.680Z,1.63
2022-08-03T15:52:26.105Z,1.52
2022-08-03T15:59:03.757Z,1.50
2022-08-03T16:00:33.675Z,1.70
2022-08-03T16:03:02.595Z,1.80
2022-08-03T16:05:30.396Z,1.30
2022-08-03T16:08:03.642Z,1.55
2022-08-03T16:10:32.824Z,1.77
2022-08-03T16:13:02.852Z,1.60
2022-08-03T16:15:30.925Z,1.50
2022-08-03T16:18:06.872Z,1.75
2022-08-03T16:20:35.362Z,1.70
2022-08-03T16:23:10.621Z,1.70
2022-08-03T16:25:42.561Z,1.80
2022-08-03T16:28:16.028Z,1.60
2022-08-03T16:30:45.909Z,1.87
2022-08-03T16:33:17.788Z,1.52
2022-08-03T16:35:46.731Z,1.52
2022-08-03T16:38:18.544Z,2.08
2022-08-03T16:40:48.315Z,1.70
2022-08-03T16:43:19.477Z,1.60
2022-08-03T16:45:48.899Z,1.75
2022-08-03T16:48:17.124Z,1.65
2022-08-03T16:50:44.934Z,1.67
2022-08-03T16:53:16.310Z,1.65
2022-08-03T16:55:52.094Z,1.80
2022-08-03T16:58:41.285Z,1.60
2022-08-03T17:01:24.330Z,1.80
2022-08-03T17:04:01.369Z,1.80
2022-08-03T17:06:35.727Z,1.70
2022-08-03T17:09:08.639Z,1.67
2022-08-03T17:11:44.108Z,1.70
2022-08-03T17:14:21.615Z,1.88
2022-08-03T17:16:52.868Z,2.03
2022-08-03T17:19:24.626Z,1.70
2022-08-03T17:21:58.935Z,1.70
2022-08-03T17:24:32.421Z,1.80
2022-08-03T17:28:48.901Z,1.80
2022-08-03T17:30:46.730Z,1.90
2022-08-03T17:33:20.452Z,2.10
2022-08-03T17:35:47.982Z,1.60
2022-08-03T17:38:22.844Z,1.83
2022-08-03T17:40:52.221Z,1.63
2022-08-03T17:44:13.581Z,1.65
2022-08-03T17:46:16.862Z,1.85
2022-08-03T17:48:47.248Z,1.60
2022-08-03T17:51:23.658Z,1.80
2022-08-03T17:54:00.751Z,1.60
2022-08-03T17:56:45.939Z,2.00
2022-08-03T17:59:51.782Z,1.90
2022-08-03T18:02:41.207Z,1.77
2022-08-03T18:05:22.016Z,1.75
2022-08-03T18:08:01.554Z,1.80
2022-08-03T18:10:35.614Z,1.90
2022-08-03T18:13:11.148Z,1.80
2022-08-03T18:15:44.144Z,1.83
2022-08-03T18:18:16.927Z,1.90
2022-08-03T18:21:06.541Z,1.65
2022-08-03T18:23:39.368Z,1.65
2022-08-03T18:26:12.037Z,2.28
2022-08-03T18:28:40.824Z,1.80
2022-08-03T18:31:11.600Z,1.80
2022-08-03T18:34:17.133Z,1.70
2022-08-03T18:36:34.346Z,2.00
2022-08-03T18:39:05.334Z,1.90
2022-08-03T18:44:37.520Z,2.00
2022-08-03T18:47:25.283Z,1.85
2022-08-03T18:50:12.925Z,1.92
2022-08-03T18:55:52.249Z,2.22
2022-08-03T18:58:35.740Z,1.75
2022-08-03T19:02:00.163Z,1.92
2022-08-03T19:04:12.032Z,2.25
2022-08-03T19:06:44.892Z,4.22
2022-08-03T19:09:24.447Z,3.80
2022-08-03T19:12:14.356Z,2.15
2022-08-03T19:14:50.065Z,2.60
2022-08-03T19:17:21.191Z,2.30
2022-08-03T19:19:52.769Z,2.10
2022-08-03T19:22:23.083Z,2.30
2022-08-03T19:24:55.289Z,2.10
2022-08-03T19:27:26.952Z,2.03
2022-08-03T19:32:48.184Z,2.10
2022-08-03T19:35:19.026Z,2.28
2022-08-03T19:37:51.825Z,2.50
2022-08-03T19:40:20.447Z,2.60
2022-08-03T19:42:58.169Z,2.25
2022-08-03T19:45:52.664Z,2.22
2022-08-03T19:48:26.887Z,2.20
2022-08-03T19:50:59.095Z,2.22
2022-08-03T19:53:35.175Z,2.67
2022-08-03T19:56:06.175Z,2.45
2022-08-03T19:58:36.216Z,2.35
2022-08-03T20:01:21.179Z,2.60
2022-08-03T20:03:50.652Z,2.70
2022-08-03T20:06:20.646Z,2.72
2022-08-03T20:08:51.724Z,2.80
2022-08-03T20:11:20.905Z,2.70
2022-08-03T20:13:58.214Z,2.53
2022-08-03T20:16:26.837Z,2.50
2022-08-03T20:18:54.403Z,2.35
2022-08-03T20:21:24.968Z,2.72
2022-08-03T20:24:03.326Z,2.45
2022-08-03T20:26:53.395Z,2.42
2022-08-03T20:30:05.284Z,2.75
2022-08-03T20:32:19.177Z,2.47
2022-08-03T20:34:51.866Z,2.95
2022-08-03T20:37:20.171Z,2.38
2022-08-03T20:39:49.856Z,2.53
2022-08-03T20:42:21.262Z,2.53
2022-08-03T20:45:04.779Z,2.35
2022-08-03T20:47:35.671Z,2.70
2022-08-03T20:50:04.689Z,2.33
2022-08-03T20:52:35.197Z,2.30
2022-08-03T20:55:20.391Z,2.58
2022-08-03T20:58:07.206Z,2.40
2022-08-03T21:00:35.129Z,2.50
2022-08-03T21:03:02.219Z,2.38
2022-08-03T21:05:48.250Z,2.72
2022-08-03T21:08:21.476Z,2.63
2022-08-03T21:10:56.444Z,2.60
2022-08-03T21:13:05.867Z,1.60
2022-08-03T21:13:08.995Z,2.25
2022-08-03T21:13:09.522Z,2.20
2022-08-03T21:13:29.631Z,2.40
2022-08-03T21:16:12.564Z,2.65
2022-08-03T21:18:45.286Z,2.95
2022-08-03T21:21:17.049Z,2.90
2022-08-03T21:23:48.218Z,2.80
2022-08-03T21:26:19.979Z,2.55
2022-08-03T21:28:48.470Z,2.45
2022-08-03T21:31:24.826Z,2.78
2022-08-03T21:33:55.647Z,2.78
2022-08-03T21:36:23.250Z,2.70
2022-08-03T21:38:55.842Z,2.75
2022-08-03T21:41:27.643Z,2.40
2022-08-03T21:43:57.239Z,2.67
2022-08-03T21:46:26.399Z,2.55
2022-08-03T21:50:02.734Z,2.70
2022-08-03T21:51:50.220Z,2.65
2022-08-03T21:54:20.302Z,2.88
2022-08-03T21:56:51.808Z,2.42
2022-08-03T21:59:23.612Z,2.45
2022-08-03T22:01:55.433Z,2.50
2022-08-03T22:07:15.336Z,2.55
2022-08-03T22:09:51.054Z,2.47
2022-08-03T22:12:25.420Z,2.70
2022-08-03T22:15:01.356Z,2.53
2022-08-03T22:17:55.146Z,2.78
2022-08-03T22:20:19.668Z,2.80
2022-08-03T22:22:55.208Z,2.78
2022-08-03T22:25:28.151Z,2.80
2022-08-03T22:27:59.515Z,2.88
2022-08-03T22:30:26.986Z,2.72
2022-08-03T22:32:55.947Z,2.78
2022-08-03T22:35:25.606Z,3.00
2022-08-03T22:37:57.931Z,3.00
2022-08-03T22:40:26.122Z,2.78
2022-08-03T22:42:54.885Z,2.70
2022-08-03T22:46:07.219Z,2.85
2022-08-03T22:48:11.667Z,2.78
2022-08-03T22:50:39.832Z,2.78
2022-08-03T22:53:07.826Z,2.70
2022-08-03T22:55:37.743Z,3.05
2022-08-03T22:58:04.937Z,2.90
2022-08-03T23:00:35.826Z,2.90
2022-08-03T23:03:06.661Z,2.70
2022-08-03T23:06:01.825Z,2.58
2022-08-03T23:08:26.088Z,2.70
2022-08-03T23:10:58.397Z,2.53
2022-08-03T23:13:30.053Z,3.30
2022-08-03T23:16:01.483Z,3.00
2022-08-03T23:18:34.106Z,2.60
2022-08-03T23:23:44.313Z,2.97
2022-08-03T23:26:13.602Z,2.80
2022-08-03T23:28:45.906Z,2.88
2022-08-03T23:31:20.405Z,3.00
2022-08-03T23:33:48.825Z,3.17
2022-08-03T23:36:30.984Z,3.53
2022-08-03T23:39:03.028Z,3.00
2022-08-03T23:41:40.306Z,3.00
2022-08-03T23:44:08.147Z,3.28
2022-08-03T23:46:39.920Z,3.50
2022-08-03T23:49:07.017Z,3.33
2022-08-03T23:51:46.700Z,3.50
2022-08-03T23:54:24.198Z,3.10
2022-08-03T23:56:58.970Z,3.25
2022-08-03T23:59:32.658Z,3.17
